PWSweather.com
Personal Weather Stations
Station Observations
IBAVARIA50
Munich, PlieningDE 85652

MunichPlieningDE 85652

Lat: 48.19916153, Lon: 11.79794312

Elevation: 504

Station Type: Davis Vantage Pro2

http://wetterstation-pliening.info

High Low Average
Temperature 39.5°F4.2°F 33.2°F0.7°F 35.5°F1.9°F
Dew Point 33.5°F0.8°F 28.9°F-1.7°F 31.8°F-0.1°F
Winds 19.0 mph SW30.6 mph SW Calm Calm 6.5 mph 10.5 mph
Wind Gusts 27.0 mph43.5 mph 2.0 mph3.2 mph 11.5 mph18.5 mph
Humidity 95% 74% 87%
Pressure 29.93 in1013.50 in 29.45 in997.30 in -
Precipitation 3.06 in77.70 in - -
Hour Temp Dew Point Humidity Winds Wind Gusts Pressure Precip Precip Rate Daily Precip Total
12:00 AM 33.7°F0.9°C 32.1°F0.1°C 94% 4.0 mph SW6.4 kmh SW 5.0 mph8.0 kmh 29.87 in1011.5 mb 0.06 in1.5 mm 0.00 in0.0 mm 0.20 in5.1 mm
12:05 AM 33.7°F0.9°C 32.1°F0.1°C 94% 4.0 mph WSW6.4 kmh WSW 6.0 mph9.7 kmh 29.87 in1011.5 mb 0.06 in1.5 mm 0.00 in0.0 mm 0.06 in1.5 mm
12:10 AM 33.8°F1.0°C 32.2°F0.1°C 94% 4.0 mph WSW6.4 kmh WSW 11.0 mph17.7 kmh 29.87 in1011.5 mb 0.06 in1.5 mm 0.00 in0.0 mm 0.06 in1.5 mm
12:15 AM 34.1°F1.2°C 32.5°F0.3°C 94% 9.0 mph SW14.5 kmh SW 12.0 mph19.3 kmh 29.88 in1011.9 mb 0.06 in1.5 mm 0.00 in0.0 mm 0.06 in1.5 mm
12:20 AM 34.4°F1.3°C 32.8°F0.4°C 94% 6.0 mph WSW9.7 kmh WSW 15.0 mph24.1 kmh 29.87 in1011.5 mb 0.05 in1.3 mm 0.00 in0.0 mm 0.06 in1.5 mm
12:25 AM 34.6°F1.4°C 32.7°F0.4°C 93% 11.0 mph W17.7 kmh W 14.0 mph22.5 kmh 29.88 in1011.9 mb 0.04 in1.0 mm 0.00 in0.0 mm 0.06 in1.5 mm
12:30 AM 34.9°F1.6°C 32.8°F0.4°C 92% 8.0 mph SW12.9 kmh SW 16.0 mph25.7 kmh 29.88 in1011.9 mb 0.03 in0.8 mm 0.00 in0.0 mm 0.06 in1.5 mm
12:35 AM 35.1°F1.7°C 33.0°F0.6°C 92% 7.0 mph SW11.3 kmh SW 20.0 mph32.2 kmh 29.88 in1011.9 mb 0.03 in0.8 mm 0.00 in0.0 mm 0.06 in1.5 mm
12:40 AM 35.2°F1.8°C 32.8°F0.4°C 91% 13.0 mph W20.9 kmh W 20.0 mph32.2 kmh 29.88 in1011.9 mb 0.02 in0.5 mm 0.00 in0.0 mm 0.06 in1.5 mm
12:45 AM 35.4°F1.9°C 33.0°F0.6°C 91% 12.0 mph WSW19.3 kmh WSW 21.0 mph33.8 kmh 29.89 in1012.2 mb 0.02 in0.5 mm 0.00 in0.0 mm 0.06 in1.5 mm
12:50 AM 35.5°F1.9°C 32.8°F0.4°C 90% 14.0 mph SW22.5 kmh SW 18.0 mph29.0 kmh 29.88 in1011.9 mb 0.01 in0.3 mm 0.00 in0.0 mm 0.06 in1.5 mm
12:55 AM 35.5°F1.9°C 32.8°F0.4°C 90% 9.0 mph SW14.5 kmh SW 17.0 mph27.4 kmh 29.88 in1011.9 mb 0.01 in0.3 mm 0.00 in0.0 mm 0.06 in1.5 mm
01:00 AM 35.4°F1.9°C 32.7°F0.4°C 90% 13.0 mph WNW20.9 kmh WNW 19.0 mph30.6 kmh 29.89 in1012.2 mb 0.00 in0.0 mm 0.00 in0.0 mm 0.06 in1.5 mm
01:05 AM 35.5°F1.9°C 32.8°F0.4°C 90% 14.0 mph SW22.5 kmh SW 20.0 mph32.2 kmh 29.89 in1012.2 mb 0.00 in0.0 mm 0.00 in0.0 mm 0.06 in1.5 mm
01:10 AM 35.3°F1.8°C 32.9°F0.5°C 91% 13.0 mph WSW20.9 kmh WSW 15.0 mph24.1 kmh 29.89 in1012.2 mb 0.00 in0.0 mm 0.00 in0.0 mm 0.06 in1.5 mm
01:15 AM 35.3°F1.8°C 32.6°F0.3°C 90% 13.0 mph NW20.9 kmh NW 19.0 mph30.6 kmh 29.89 in1012.2 mb 0.00 in0.0 mm 0.00 in0.0 mm 0.06 in1.5 mm
01:20 AM 35.2°F1.8°C 32.5°F0.3°C 90% 13.0 mph WSW20.9 kmh WSW 17.0 mph27.4 kmh 29.90 in1012.5 mb 0.00 in0.0 mm 0.00 in0.0 mm 0.06 in1.5 mm
01:25 AM 35.2°F1.8°C 32.5°F0.3°C 90% 12.0 mph W19.3 kmh W 20.0 mph32.2 kmh 29.90 in1012.5 mb 0.00 in0.0 mm 0.00 in0.0 mm 0.06 in1.5 mm
01:30 AM 35.1°F1.7°C 32.4°F0.2°C 90% 8.0 mph WSW12.9 kmh WSW 18.0 mph29.0 kmh 29.90 in1012.5 mb 0.00 in0.0 mm 0.00 in0.0 mm 0.06 in1.5 mm
01:35 AM 35.1°F1.7°C 32.4°F0.2°C 90% 10.0 mph W16.1 kmh W 14.0 mph22.5 kmh 29.90 in1012.5 mb 0.00 in0.0 mm 0.00 in0.0 mm 0.06 in1.5 mm
01:40 AM 35.1°F1.7°C 32.4°F0.2°C 90% 14.0 mph W22.5 kmh W 17.0 mph27.4 kmh 29.90 in1012.5 mb 0.00 in0.0 mm 0.00 in0.0 mm 0.06 in1.5 mm
01:45 AM 35.2°F1.8°C 32.5°F0.3°C 90% 11.0 mph WSW17.7 kmh WSW 16.0 mph25.7 kmh 29.91 in1012.9 mb 0.00 in0.0 mm 0.00 in0.0 mm 0.06 in1.5 mm
01:50 AM 35.2°F1.8°C 32.5°F0.3°C 90% 11.0 mph W17.7 kmh W 20.0 mph32.2 kmh 29.91 in1012.9 mb 0.00 in0.0 mm 0.00 in0.0 mm 0.06 in1.5 mm
01:55 AM 35.2°F1.8°C 32.5°F0.3°C 90% 14.0 mph WSW22.5 kmh WSW 18.0 mph29.0 kmh 29.91 in1012.9 mb 0.00 in0.0 mm 0.00 in0.0 mm 0.06 in1.5 mm
02:00 AM 35.2°F1.8°C 32.5°F0.3°C 90% 9.0 mph WSW14.5 kmh WSW 14.0 mph22.5 kmh 29.91 in1012.9 mb 0.00 in0.0 mm 0.00 in0.0 mm 0.06 in1.5 mm
02:05 AM 35.2°F1.8°C 32.5°F0.3°C 90% 7.0 mph WSW11.3 kmh WSW 17.0 mph27.4 kmh 29.91 in1012.9 mb 0.00 in0.0 mm 0.00 in0.0 mm 0.06 in1.5 mm
02:10 AM 35.1°F1.7°C 32.4°F0.2°C 90% 11.0 mph SW17.7 kmh SW 15.0 mph24.1 kmh 29.92 in1013.2 mb 0.00 in0.0 mm 0.00 in0.0 mm 0.06 in1.5 mm
02:15 AM 35.0°F1.7°C 32.6°F0.3°C 91% 9.0 mph W14.5 kmh W 15.0 mph24.1 kmh 29.92 in1013.2 mb 0.00 in0.0 mm 0.00 in0.0 mm 0.06 in1.5 mm
02:20 AM 35.0°F1.7°C 32.6°F0.3°C 91% 11.0 mph WSW17.7 kmh WSW 13.0 mph20.9 kmh 29.92 in1013.2 mb 0.00 in0.0 mm 0.00 in0.0 mm 0.06 in1.5 mm
02:25 AM 35.1°F1.7°C 32.4°F0.2°C 90% 12.0 mph WSW19.3 kmh WSW 16.0 mph25.7 kmh 29.92 in1013.2 mb 0.00 in0.0 mm 0.00 in0.0 mm 0.06 in1.5 mm
02:30 AM 35.2°F1.8°C 32.2°F0.1°C 89% 9.0 mph SW14.5 kmh SW 16.0 mph25.7 kmh 29.92 in1013.2 mb 0.00 in0.0 mm 0.00 in0.0 mm 0.06 in1.5 mm
02:35 AM 35.3°F1.8°C 32.6°F0.3°C 90% 6.0 mph WSW9.7 kmh WSW 17.0 mph27.4 kmh 29.93 in1013.5 mb 0.00 in0.0 mm 0.00 in0.0 mm 0.06 in1.5 mm
02:40 AM 35.2°F1.8°C 32.5°F0.3°C 90% 4.0 mph WSW6.4 kmh WSW 13.0 mph20.9 kmh 29.93 in1013.5 mb 0.00 in0.0 mm 0.00 in0.0 mm 0.06 in1.5 mm
02:45 AM 35.1°F1.7°C 32.4°F0.2°C 90% 7.0 mph W11.3 kmh W 14.0 mph22.5 kmh 29.92 in1013.2 mb 0.00 in0.0 mm 0.00 in0.0 mm 0.06 in1.5 mm
02:50 AM 35.1°F1.7°C 32.1°F0.1°C 89% 9.0 mph W14.5 kmh W 16.0 mph25.7 kmh 29.93 in1013.5 mb 0.00 in0.0 mm 0.00 in0.0 mm 0.06 in1.5 mm
02:55 AM 35.2°F1.8°C 32.2°F0.1°C 89% 11.0 mph SW17.7 kmh SW 13.0 mph20.9 kmh 29.93 in1013.5 mb 0.00 in0.0 mm 0.00 in0.0 mm 0.06 in1.5 mm
03:00 AM 35.2°F1.8°C 32.0°F0.0°C 88% 12.0 mph WSW19.3 kmh WSW 14.0 mph22.5 kmh 29.93 in1013.5 mb 0.00 in0.0 mm 0.00 in0.0 mm 0.06 in1.5 mm
03:05 AM 35.3°F1.8°C 32.1°F0.1°C 88% 14.0 mph WSW22.5 kmh WSW 19.0 mph30.6 kmh 29.93 in1013.5 mb 0.00 in0.0 mm 0.00 in0.0 mm 0.06 in1.5 mm
03:10 AM 35.3°F1.8°C 32.1°F0.1°C 88% 9.0 mph WSW14.5 kmh WSW 16.0 mph25.7 kmh 29.93 in1013.5 mb 0.00 in0.0 mm 0.00 in0.0 mm 0.06 in1.5 mm
03:15 AM 35.3°F1.8°C 31.8°F-0.1°C 87% 10.0 mph W16.1 kmh W 16.0 mph25.7 kmh 29.93 in1013.5 mb 0.00 in0.0 mm 0.00 in0.0 mm 0.06 in1.5 mm
03:20 AM 35.2°F1.8°C 32.0°F0.0°C 88% 7.0 mph WSW11.3 kmh WSW 14.0 mph22.5 kmh 29.93 in1013.5 mb 0.00 in0.0 mm 0.00 in0.0 mm 0.06 in1.5 mm
03:25 AM 35.2°F1.8°C 32.0°F0.0°C 88% 10.0 mph WSW16.1 kmh WSW 11.0 mph17.7 kmh 29.93 in1013.5 mb 0.00 in0.0 mm 0.00 in0.0 mm 0.06 in1.5 mm
03:30 AM 35.1°F1.7°C 31.9°F-0.1°C 88% 9.0 mph W14.5 kmh W 13.0 mph20.9 kmh 29.93 in1013.5 mb 0.00 in0.0 mm 0.00 in0.0 mm 0.06 in1.5 mm
03:35 AM 35.1°F1.7°C 31.9°F-0.1°C 88% 7.0 mph WSW11.3 kmh WSW 12.0 mph19.3 kmh 29.93 in1013.5 mb 0.00 in0.0 mm 0.00 in0.0 mm 0.06 in1.5 mm
03:40 AM 35.1°F1.7°C 31.9°F-0.1°C 88% 11.0 mph WSW17.7 kmh WSW 12.0 mph19.3 kmh 29.93 in1013.5 mb 0.00 in0.0 mm 0.00 in0.0 mm 0.06 in1.5 mm
03:45 AM 35.0°F1.7°C 31.8°F-0.1°C 88% 7.0 mph WSW11.3 kmh WSW 14.0 mph22.5 kmh 29.93 in1013.5 mb 0.00 in0.0 mm 0.00 in0.0 mm 0.06 in1.5 mm
03:50 AM 34.9°F1.6°C 31.7°F-0.2°C 88% 9.0 mph SW14.5 kmh SW 14.0 mph22.5 kmh 29.93 in1013.5 mb 0.00 in0.0 mm 0.00 in0.0 mm 0.06 in1.5 mm
03:55 AM 34.9°F1.6°C 31.7°F-0.2°C 88% 11.0 mph WSW17.7 kmh WSW 13.0 mph20.9 kmh 29.93 in1013.5 mb 0.00 in0.0 mm 0.00 in0.0 mm 0.06 in1.5 mm
04:00 AM 34.8°F1.6°C 31.6°F-0.2°C 88% 6.0 mph SW9.7 kmh SW 13.0 mph20.9 kmh 29.93 in1013.5 mb 0.00 in0.0 mm 0.00 in0.0 mm 0.06 in1.5 mm
04:05 AM 34.7°F1.5°C 31.5°F-0.3°C 88% 6.0 mph W9.7 kmh W 11.0 mph17.7 kmh 29.93 in1013.5 mb 0.00 in0.0 mm 0.00 in0.0 mm 0.06 in1.5 mm
04:10 AM 34.6°F1.4°C 31.4°F-0.3°C 88% 7.0 mph WSW11.3 kmh WSW 11.0 mph17.7 kmh 29.93 in1013.5 mb 0.00 in0.0 mm 0.00 in0.0 mm 0.06 in1.5 mm
04:15 AM 34.5°F1.4°C 31.3°F-0.4°C 88% 5.0 mph SW8.0 kmh SW 11.0 mph17.7 kmh 29.92 in1013.2 mb 0.00 in0.0 mm 0.00 in0.0 mm 0.06 in1.5 mm
04:20 AM 34.4°F1.3°C 31.2°F-0.4°C 88% 3.0 mph W4.8 kmh W 9.0 mph14.5 kmh 29.92 in1013.2 mb 0.00 in0.0 mm 0.00 in0.0 mm 0.06 in1.5 mm
04:25 AM 34.3°F1.3°C 31.1°F-0.5°C 88% 6.0 mph WSW9.7 kmh WSW 6.0 mph9.7 kmh 29.92 in1013.2 mb 0.00 in0.0 mm 0.00 in0.0 mm 0.06 in1.5 mm
04:30 AM 34.1°F1.2°C 31.2°F-0.4°C 89% 4.0 mph WSW6.4 kmh WSW 7.0 mph11.3 kmh 29.92 in1013.2 mb 0.00 in0.0 mm 0.00 in0.0 mm 0.06 in1.5 mm
04:35 AM 34.0°F1.1°C 31.1°F-0.5°C 89% 6.0 mph SW9.7 kmh SW 9.0 mph14.5 kmh 29.92 in1013.2 mb 0.00 in0.0 mm 0.00 in0.0 mm 0.06 in1.5 mm
04:40 AM 34.0°F1.1°C 31.1°F-0.5°C 89% 3.0 mph SW4.8 kmh SW 7.0 mph11.3 kmh 29.92 in1013.2 mb 0.00 in0.0 mm 0.00 in0.0 mm 0.06 in1.5 mm
04:45 AM 34.0°F1.1°C 31.1°F-0.5°C 89% 4.0 mph WSW6.4 kmh WSW 10.0 mph16.1 kmh 29.92 in1013.2 mb 0.00 in0.0 mm 0.00 in0.0 mm 0.06 in1.5 mm
04:50 AM 34.0°F1.1°C 31.1°F-0.5°C 89% 8.0 mph WSW12.9 kmh WSW 11.0 mph17.7 kmh 29.92 in1013.2 mb 0.00 in0.0 mm 0.00 in0.0 mm 0.06 in1.5 mm
04:55 AM 34.1°F1.2°C 30.9°F-0.6°C 88% 6.0 mph W9.7 kmh W 12.0 mph19.3 kmh 29.92 in1013.2 mb 0.00 in0.0 mm 0.00 in0.0 mm 0.06 in1.5 mm
05:00 AM 34.3°F1.3°C 31.1°F-0.5°C 88% 9.0 mph SW14.5 kmh SW 13.0 mph20.9 kmh 29.92 in1013.2 mb 0.00 in0.0 mm 0.00 in0.0 mm 0.06 in1.5 mm
05:05 AM 34.4°F1.3°C 30.9°F-0.6°C 87% 9.0 mph WSW14.5 kmh WSW 12.0 mph19.3 kmh 29.92 in1013.2 mb 0.00 in0.0 mm 0.00 in0.0 mm 0.06 in1.5 mm
05:10 AM 34.6°F1.4°C 31.1°F-0.5°C 87% 5.0 mph W8.0 kmh W 14.0 mph22.5 kmh 29.92 in1013.2 mb 0.00 in0.0 mm 0.00 in0.0 mm 0.06 in1.5 mm
05:15 AM 34.7°F1.5°C 31.2°F-0.4°C 87% 7.0 mph SW11.3 kmh SW 9.0 mph14.5 kmh 29.92 in1013.2 mb 0.00 in0.0 mm 0.00 in0.0 mm 0.06 in1.5 mm
05:20 AM 34.7°F1.5°C 30.9°F-0.6°C 86% 11.0 mph SW17.7 kmh SW 13.0 mph20.9 kmh 29.91 in1012.9 mb 0.00 in0.0 mm 0.00 in0.0 mm 0.06 in1.5 mm
05:25 AM 34.8°F1.6°C 31.0°F-0.6°C 86% 4.0 mph SSW6.4 kmh SSW 14.0 mph22.5 kmh 29.91 in1012.9 mb 0.00 in0.0 mm 0.00 in0.0 mm 0.06 in1.5 mm
05:30 AM 34.8°F1.6°C 31.0°F-0.6°C 86% 14.0 mph SW22.5 kmh SW 13.0 mph20.9 kmh 29.91 in1012.9 mb 0.00 in0.0 mm 0.00 in0.0 mm 0.06 in1.5 mm
05:35 AM 34.9°F1.6°C 31.1°F-0.5°C 86% 10.0 mph WSW16.1 kmh WSW 14.0 mph22.5 kmh 29.91 in1012.9 mb 0.00 in0.0 mm 0.00 in0.0 mm 0.06 in1.5 mm
05:40 AM 34.8°F1.6°C 30.7°F-0.7°C 85% 6.0 mph SW9.7 kmh SW 12.0 mph19.3 kmh 29.91 in1012.9 mb 0.00 in0.0 mm 0.00 in0.0 mm 0.06 in1.5 mm
05:45 AM 34.8°F1.6°C 30.7°F-0.7°C 85% 5.0 mph WSW8.0 kmh WSW 15.0 mph24.1 kmh 29.91 in1012.9 mb 0.00 in0.0 mm 0.00 in0.0 mm 0.06 in1.5 mm
05:50 AM 34.8°F1.6°C 30.7°F-0.7°C 85% 9.0 mph SW14.5 kmh SW 12.0 mph19.3 kmh 29.91 in1012.9 mb 0.00 in0.0 mm 0.00 in0.0 mm 0.06 in1.5 mm
05:55 AM 34.7°F1.5°C 30.9°F-0.6°C 86% 6.0 mph SW9.7 kmh SW 11.0 mph17.7 kmh 29.91 in1012.9 mb 0.00 in0.0 mm 0.00 in0.0 mm 0.06 in1.5 mm
06:00 AM 34.7°F1.5°C 30.6°F-0.8°C 85% 9.0 mph SSW14.5 kmh SSW 14.0 mph22.5 kmh 29.91 in1012.9 mb 0.00 in0.0 mm 0.00 in0.0 mm 0.06 in1.5 mm
06:05 AM 34.6°F1.4°C 30.8°F-0.7°C 86% 12.0 mph SW19.3 kmh SW 14.0 mph22.5 kmh 29.91 in1012.9 mb 0.00 in0.0 mm 0.00 in0.0 mm 0.06 in1.5 mm
06:10 AM 34.6°F1.4°C 30.8°F-0.7°C 86% 7.0 mph SW11.3 kmh SW 13.0 mph20.9 kmh 29.91 in1012.9 mb 0.00 in0.0 mm 0.00 in0.0 mm 0.06 in1.5 mm
06:15 AM 34.5°F1.4°C 30.7°F-0.7°C 86% 1.0 mph SSW1.6 kmh SSW 10.0 mph16.1 kmh 29.91 in1012.9 mb 0.00 in0.0 mm 0.00 in0.0 mm 0.06 in1.5 mm
06:20 AM 34.3°F1.3°C 30.8°F-0.7°C 87% 9.0 mph SW14.5 kmh SW 11.0 mph17.7 kmh 29.90 in1012.5 mb 0.00 in0.0 mm 0.00 in0.0 mm 0.06 in1.5 mm
06:25 AM 34.2°F1.2°C 30.7°F-0.7°C 87% 7.0 mph SW11.3 kmh SW 9.0 mph14.5 kmh 29.90 in1012.5 mb 0.00 in0.0 mm 0.00 in0.0 mm 0.06 in1.5 mm
06:30 AM 34.1°F1.2°C 30.6°F-0.8°C 87% 6.0 mph SW9.7 kmh SW 11.0 mph17.7 kmh 29.90 in1012.5 mb 0.00 in0.0 mm 0.00 in0.0 mm 0.06 in1.5 mm
06:35 AM 34.0°F1.1°C 30.5°F-0.8°C 87% 12.0 mph SW19.3 kmh SW 12.0 mph19.3 kmh 29.90 in1012.5 mb 0.00 in0.0 mm 0.00 in0.0 mm 0.06 in1.5 mm
06:40 AM 34.1°F1.2°C 30.6°F-0.8°C 87% 8.0 mph SW12.9 kmh SW 12.0 mph19.3 kmh 29.90 in1012.5 mb 0.00 in0.0 mm 0.00 in0.0 mm 0.06 in1.5 mm
06:45 AM 34.2°F1.2°C 30.7°F-0.7°C 87% 9.0 mph SW14.5 kmh SW 14.0 mph22.5 kmh 29.90 in1012.5 mb 0.00 in0.0 mm 0.00 in0.0 mm 0.06 in1.5 mm
06:50 AM 34.2°F1.2°C 30.7°F-0.7°C 87% 5.0 mph WSW8.0 kmh WSW 14.0 mph22.5 kmh 29.90 in1012.5 mb 0.00 in0.0 mm 0.00 in0.0 mm 0.06 in1.5 mm
06:55 AM 34.3°F1.3°C 30.8°F-0.7°C 87% 10.0 mph SW16.1 kmh SW 18.0 mph29.0 kmh 29.90 in1012.5 mb 0.00 in0.0 mm 0.00 in0.0 mm 0.06 in1.5 mm
07:00 AM 34.5°F1.4°C 30.7°F-0.7°C 86% 10.0 mph SW16.1 kmh SW 16.0 mph25.7 kmh 29.89 in1012.2 mb 0.00 in0.0 mm 0.00 in0.0 mm 0.06 in1.5 mm
07:05 AM 34.6°F1.4°C 30.5°F-0.8°C 85% 4.0 mph WSW6.4 kmh WSW 17.0 mph27.4 kmh 29.89 in1012.2 mb 0.00 in0.0 mm 0.00 in0.0 mm 0.06 in1.5 mm
07:10 AM 34.7°F1.5°C 30.3°F-0.9°C 84% 5.0 mph SW8.0 kmh SW 16.0 mph25.7 kmh 29.89 in1012.2 mb 0.00 in0.0 mm 0.00 in0.0 mm 0.06 in1.5 mm
07:15 AM 34.8°F1.6°C 30.1°F-1.1°C 83% 10.0 mph WSW16.1 kmh WSW 15.0 mph24.1 kmh 29.88 in1011.9 mb 0.00 in0.0 mm 0.00 in0.0 mm 0.06 in1.5 mm
07:20 AM 34.8°F1.6°C 30.1°F-1.1°C 83% 8.0 mph SW12.9 kmh SW 14.0 mph22.5 kmh 29.88 in1011.9 mb 0.00 in0.0 mm 0.00 in0.0 mm 0.06 in1.5 mm
07:25 AM 34.8°F1.6°C 30.1°F-1.1°C 83% 6.0 mph SW9.7 kmh SW 12.0 mph19.3 kmh 29.88 in1011.9 mb 0.00 in0.0 mm 0.00 in0.0 mm 0.06 in1.5 mm
07:30 AM 34.8°F1.6°C 30.1°F-1.1°C 83% 9.0 mph SW14.5 kmh SW 12.0 mph19.3 kmh 29.88 in1011.9 mb 0.00 in0.0 mm 0.00 in0.0 mm 0.06 in1.5 mm
07:35 AM 35.0°F1.7°C 29.7°F-1.3°C 81% 12.0 mph SW19.3 kmh SW 16.0 mph25.7 kmh 29.88 in1011.9 mb 0.00 in0.0 mm 0.00 in0.0 mm 0.06 in1.5 mm
07:40 AM 35.1°F1.7°C 29.8°F-1.2°C 81% 13.0 mph SW20.9 kmh SW 15.0 mph24.1 kmh 29.88 in1011.9 mb 0.00 in0.0 mm 0.00 in0.0 mm 0.06 in1.5 mm
07:45 AM 35.2°F1.8°C 29.6°F-1.3°C 80% 15.0 mph SW24.1 kmh SW 16.0 mph25.7 kmh 29.88 in1011.9 mb 0.00 in0.0 mm 0.00 in0.0 mm 0.06 in1.5 mm
07:50 AM 35.2°F1.8°C 29.3°F-1.5°C 79% 12.0 mph SW19.3 kmh SW 16.0 mph25.7 kmh 29.88 in1011.9 mb 0.00 in0.0 mm 0.00 in0.0 mm 0.06 in1.5 mm
07:55 AM 35.2°F1.8°C 29.3°F-1.5°C 79% 13.0 mph SW20.9 kmh SW 19.0 mph30.6 kmh 29.88 in1011.9 mb 0.00 in0.0 mm 0.00 in0.0 mm 0.06 in1.5 mm
08:00 AM 35.2°F1.8°C 29.3°F-1.5°C 79% 10.0 mph SSW16.1 kmh SSW 19.0 mph30.6 kmh 29.88 in1011.9 mb 0.00 in0.0 mm 0.00 in0.0 mm 0.06 in1.5 mm
08:05 AM 35.1°F1.7°C 29.2°F-1.6°C 79% 8.0 mph S12.9 kmh S 19.0 mph30.6 kmh 29.88 in1011.9 mb 0.00 in0.0 mm 0.00 in0.0 mm 0.06 in1.5 mm
08:10 AM 35.1°F1.7°C 29.2°F-1.6°C 79% 13.0 mph SW20.9 kmh SW 17.0 mph27.4 kmh 29.88 in1011.9 mb 0.00 in0.0 mm 0.00 in0.0 mm 0.06 in1.5 mm
08:15 AM 35.1°F1.7°C 28.9°F-1.7°C 78% 13.0 mph SW20.9 kmh SW 23.0 mph37.0 kmh 29.88 in1011.9 mb 0.00 in0.0 mm 0.00 in0.0 mm 0.06 in1.5 mm
08:20 AM 35.2°F1.8°C 29.0°F-1.7°C 78% 14.0 mph SW22.5 kmh SW 19.0 mph30.6 kmh 29.88 in1011.9 mb 0.00 in0.0 mm 0.00 in0.0 mm 0.06 in1.5 mm
08:25 AM 35.2°F1.8°C 29.0°F-1.7°C 78% 11.0 mph SW17.7 kmh SW 19.0 mph30.6 kmh 29.89 in1012.2 mb 0.00 in0.0 mm 0.00 in0.0 mm 0.06 in1.5 mm
08:30 AM 35.3°F1.8°C 29.1°F-1.6°C 78% 6.0 mph WSW9.7 kmh WSW 26.0 mph41.8 kmh 29.89 in1012.2 mb 0.00 in0.0 mm 0.00 in0.0 mm 0.06 in1.5 mm
08:35 AM 35.6°F2.0°C 29.1°F-1.6°C 77% 6.0 mph WSW9.7 kmh WSW 27.0 mph43.5 kmh 29.89 in1012.2 mb 0.00 in0.0 mm 0.00 in0.0 mm 0.06 in1.5 mm
08:40 AM 35.5°F1.9°C 29.3°F-1.5°C 78% 8.0 mph WSW12.9 kmh WSW 21.0 mph33.8 kmh 29.89 in1012.2 mb 0.00 in0.0 mm 0.00 in0.0 mm 0.06 in1.5 mm
08:45 AM 34.8°F1.6°C 30.4°F-0.9°C 84% 12.0 mph SW19.3 kmh SW 24.0 mph38.6 kmh 29.89 in1012.2 mb 0.00 in0.0 mm 0.00 in0.0 mm 0.06 in1.5 mm
08:50 AM 34.1°F1.2°C 30.6°F-0.8°C 87% 10.0 mph WSW16.1 kmh WSW 18.0 mph29.0 kmh 29.89 in1012.2 mb 0.00 in0.0 mm 0.00 in0.0 mm 0.06 in1.5 mm
08:55 AM 33.6°F0.9°C 30.9°F-0.6°C 90% 4.0 mph WSW6.4 kmh WSW 18.0 mph29.0 kmh 29.89 in1012.2 mb 0.00 in0.0 mm 0.00 in0.0 mm 0.06 in1.5 mm
09:00 AM 33.2°F0.7°C 30.8°F-0.7°C 91% 9.0 mph SW14.5 kmh SW 16.0 mph25.7 kmh 29.89 in1012.2 mb 0.00 in0.0 mm 0.00 in0.0 mm 0.06 in1.5 mm
09:05 AM 33.2°F0.7°C 30.8°F-0.7°C 91% 10.0 mph SW16.1 kmh SW 17.0 mph27.4 kmh 29.88 in1011.9 mb 0.01 in0.3 mm 0.12 in3.0 mm 0.01 in0.3 mm
09:10 AM 33.3°F0.7°C 30.9°F-0.6°C 91% 9.0 mph S14.5 kmh S 14.0 mph22.5 kmh 29.88 in1011.9 mb 0.01 in0.3 mm 0.00 in0.0 mm 0.01 in0.3 mm
09:15 AM 33.4°F0.8°C 31.0°F-0.6°C 91% 11.0 mph SW17.7 kmh SW 13.0 mph20.9 kmh 29.88 in1011.9 mb 0.01 in0.3 mm 0.00 in0.0 mm 0.01 in0.3 mm
09:20 AM 33.5°F0.8°C 30.6°F-0.8°C 89% 6.0 mph SW9.7 kmh SW 15.0 mph24.1 kmh 29.88 in1011.9 mb 0.01 in0.3 mm 0.00 in0.0 mm 0.01 in0.3 mm
09:25 AM 33.8°F1.0°C 30.9°F-0.6°C 89% 14.0 mph SW22.5 kmh SW 15.0 mph24.1 kmh 29.88 in1011.9 mb 0.01 in0.3 mm 0.00 in0.0 mm 0.01 in0.3 mm
09:30 AM 34.1°F1.2°C 30.6°F-0.8°C 87% 12.0 mph SW19.3 kmh SW 16.0 mph25.7 kmh 29.88 in1011.9 mb 0.01 in0.3 mm 0.00 in0.0 mm 0.01 in0.3 mm
09:35 AM 34.4°F1.3°C 30.9°F-0.6°C 87% 10.0 mph SW16.1 kmh SW 15.0 mph24.1 kmh 29.88 in1011.9 mb 0.01 in0.3 mm 0.00 in0.0 mm 0.01 in0.3 mm
09:40 AM 34.6°F1.4°C 30.5°F-0.8°C 85% 15.0 mph SW24.1 kmh SW 19.0 mph30.6 kmh 29.88 in1011.9 mb 0.01 in0.3 mm 0.00 in0.0 mm 0.01 in0.3 mm
09:45 AM 34.9°F1.6°C 30.8°F-0.7°C 85% 7.0 mph WSW11.3 kmh WSW 16.0 mph25.7 kmh 29.88 in1011.9 mb 0.01 in0.3 mm 0.00 in0.0 mm 0.01 in0.3 mm
09:50 AM 35.1°F1.7°C 30.7°F-0.7°C 84% 14.0 mph SW22.5 kmh SW 17.0 mph27.4 kmh 29.88 in1011.9 mb 0.01 in0.3 mm 0.00 in0.0 mm 0.01 in0.3 mm
09:55 AM 35.3°F1.8°C 30.6°F-0.8°C 83% 19.0 mph SW30.6 kmh SW 22.0 mph35.4 kmh 29.88 in1011.9 mb 0.01 in0.3 mm 0.00 in0.0 mm 0.01 in0.3 mm
10:00 AM 34.9°F1.6°C 31.1°F-0.5°C 86% 13.0 mph SW20.9 kmh SW 27.0 mph43.5 kmh 29.88 in1011.9 mb 0.01 in0.3 mm 0.00 in0.0 mm 0.01 in0.3 mm
10:05 AM 34.5°F1.4°C 31.3°F-0.4°C 88% 12.0 mph SW19.3 kmh SW 20.0 mph32.2 kmh 29.89 in1012.2 mb 0.00 in0.0 mm 0.00 in0.0 mm 0.01 in0.3 mm
10:10 AM 34.2°F1.2°C 31.3°F-0.4°C 89% 6.0 mph SSW9.7 kmh SSW 16.0 mph25.7 kmh 29.89 in1012.2 mb 0.00 in0.0 mm 0.00 in0.0 mm 0.01 in0.3 mm
10:15 AM 34.0°F1.1°C 31.3°F-0.4°C 90% 3.0 mph SW4.8 kmh SW 14.0 mph22.5 kmh 29.88 in1011.9 mb 0.00 in0.0 mm 0.00 in0.0 mm 0.01 in0.3 mm
10:20 AM 34.1°F1.2°C 31.4°F-0.3°C 90% 8.0 mph WSW12.9 kmh WSW 19.0 mph30.6 kmh 29.88 in1011.9 mb 0.00 in0.0 mm 0.00 in0.0 mm 0.01 in0.3 mm
10:25 AM 34.2°F1.2°C 31.3°F-0.4°C 89% 10.0 mph SW16.1 kmh SW 17.0 mph27.4 kmh 29.89 in1012.2 mb 0.00 in0.0 mm 0.00 in0.0 mm 0.01 in0.3 mm
10:30 AM 34.3°F1.3°C 31.4°F-0.3°C 89% 6.0 mph SW9.7 kmh SW 17.0 mph27.4 kmh 29.88 in1011.9 mb 0.00 in0.0 mm 0.00 in0.0 mm 0.01 in0.3 mm
10:35 AM 34.4°F1.3°C 31.4°F-0.3°C 89% 7.0 mph SW11.3 kmh SW 12.0 mph19.3 kmh 29.88 in1011.9 mb 0.00 in0.0 mm 0.00 in0.0 mm 0.01 in0.3 mm
10:40 AM 34.4°F1.3°C 31.4°F-0.3°C 89% 10.0 mph SW16.1 kmh SW 13.0 mph20.9 kmh 29.88 in1011.9 mb 0.00 in0.0 mm 0.00 in0.0 mm 0.01 in0.3 mm
10:45 AM 34.6°F1.4°C 31.4°F-0.3°C 88% 7.0 mph SSW11.3 kmh SSW 14.0 mph22.5 kmh 29.88 in1011.9 mb 0.00 in0.0 mm 0.00 in0.0 mm 0.01 in0.3 mm
10:50 AM 35.0°F1.7°C 31.5°F-0.3°C 87% 13.0 mph SW20.9 kmh SW 16.0 mph25.7 kmh 29.88 in1011.9 mb 0.00 in0.0 mm 0.00 in0.0 mm 0.01 in0.3 mm
10:55 AM 35.2°F1.8°C 31.7°F-0.2°C 87% 6.0 mph SSW9.7 kmh SSW 13.0 mph20.9 kmh 29.88 in1011.9 mb 0.00 in0.0 mm 0.00 in0.0 mm 0.01 in0.3 mm
11:00 AM 35.4°F1.9°C 31.6°F-0.2°C 86% 9.0 mph SSW14.5 kmh SSW 14.0 mph22.5 kmh 29.88 in1011.9 mb 0.00 in0.0 mm 0.00 in0.0 mm 0.01 in0.3 mm
11:05 AM 35.7°F2.1°C 31.9°F-0.1°C 86% 5.0 mph SSW8.0 kmh SSW 16.0 mph25.7 kmh 29.88 in1011.9 mb 0.00 in0.0 mm 0.00 in0.0 mm 0.01 in0.3 mm
11:10 AM 36.0°F2.2°C 31.9°F-0.1°C 85% 7.0 mph SSW11.3 kmh SSW 14.0 mph22.5 kmh 29.87 in1011.5 mb 0.00 in0.0 mm 0.00 in0.0 mm 0.01 in0.3 mm
11:15 AM 36.2°F2.3°C 31.8°F-0.1°C 84% 10.0 mph SSW16.1 kmh SSW 14.0 mph22.5 kmh 29.87 in1011.5 mb 0.00 in0.0 mm 0.00 in0.0 mm 0.01 in0.3 mm
11:20 AM 36.6°F2.6°C 31.9°F-0.1°C 83% 6.0 mph WSW9.7 kmh WSW 14.0 mph22.5 kmh 29.87 in1011.5 mb 0.00 in0.0 mm 0.00 in0.0 mm 0.01 in0.3 mm
11:25 AM 37.0°F2.8°C 32.3°F0.2°C 83% 9.0 mph SW14.5 kmh SW 13.0 mph20.9 kmh 29.87 in1011.5 mb 0.00 in0.0 mm 0.00 in0.0 mm 0.01 in0.3 mm
11:30 AM 37.1°F2.8°C 32.4°F0.2°C 83% 12.0 mph SSW19.3 kmh SSW 13.0 mph20.9 kmh 29.86 in1011.2 mb 0.00 in0.0 mm 0.00 in0.0 mm 0.01 in0.3 mm
11:35 AM 37.3°F2.9°C 32.0°F0.0°C 81% 7.0 mph WSW11.3 kmh WSW 15.0 mph24.1 kmh 29.86 in1011.2 mb 0.00 in0.0 mm 0.00 in0.0 mm 0.01 in0.3 mm
11:40 AM 37.4°F3.0°C 32.1°F0.1°C 81% 3.0 mph SSW4.8 kmh SSW 17.0 mph27.4 kmh 29.86 in1011.2 mb 0.00 in0.0 mm 0.00 in0.0 mm 0.01 in0.3 mm
11:45 AM 37.5°F3.1°C 31.9°F-0.1°C 80% 11.0 mph SW17.7 kmh SW 18.0 mph29.0 kmh 29.85 in1010.8 mb 0.00 in0.0 mm 0.00 in0.0 mm 0.01 in0.3 mm
11:50 AM 37.6°F3.1°C 32.3°F0.2°C 81% 9.0 mph WSW14.5 kmh WSW 18.0 mph29.0 kmh 29.85 in1010.8 mb 0.00 in0.0 mm 0.00 in0.0 mm 0.01 in0.3 mm
11:55 AM 37.7°F3.2°C 32.7°F0.4°C 82% 5.0 mph WSW8.0 kmh WSW 18.0 mph29.0 kmh 29.84 in1010.5 mb 0.00 in0.0 mm 0.00 in0.0 mm 0.01 in0.3 mm
12:00 PM 37.6°F3.1°C 32.3°F0.2°C 81% 11.0 mph WSW17.7 kmh WSW 23.0 mph37.0 kmh 29.84 in1010.5 mb 0.00 in0.0 mm 0.00 in0.0 mm 0.01 in0.3 mm
12:05 PM 36.6°F2.6°C 32.5°F0.3°C 85% 11.0 mph S17.7 kmh S 25.0 mph40.2 kmh 29.85 in1010.8 mb 0.00 in0.0 mm 0.00 in0.0 mm 0.01 in0.3 mm
12:10 PM 35.7°F2.1°C 32.5°F0.3°C 88% 11.0 mph SW17.7 kmh SW 18.0 mph29.0 kmh 29.85 in1010.8 mb 0.01 in0.3 mm 0.12 in3.0 mm 0.02 in0.5 mm
12:15 PM 35.3°F1.8°C 32.3°F0.2°C 89% 7.0 mph SW11.3 kmh SW 16.0 mph25.7 kmh 29.85 in1010.8 mb 0.01 in0.3 mm 0.00 in0.0 mm 0.02 in0.5 mm
12:20 PM 35.1°F1.7°C 32.4°F0.2°C 90% 10.0 mph SW16.1 kmh SW 14.0 mph22.5 kmh 29.84 in1010.5 mb 0.01 in0.3 mm 0.00 in0.0 mm 0.02 in0.5 mm
12:25 PM 35.2°F1.8°C 32.8°F0.4°C 91% 5.0 mph W8.0 kmh W 11.0 mph17.7 kmh 29.84 in1010.5 mb 0.01 in0.3 mm 0.00 in0.0 mm 0.02 in0.5 mm
12:30 PM 35.5°F1.9°C 33.1°F0.6°C 91% 5.0 mph WSW8.0 kmh WSW 13.0 mph20.9 kmh 29.83 in1010.2 mb 0.01 in0.3 mm 0.00 in0.0 mm 0.02 in0.5 mm
12:35 PM 35.8°F2.1°C 33.4°F0.8°C 91% 6.0 mph SSW9.7 kmh SSW 11.0 mph17.7 kmh 29.83 in1010.2 mb 0.01 in0.3 mm 0.00 in0.0 mm 0.02 in0.5 mm
12:40 PM 36.2°F2.3°C 33.5°F0.8°C 90% 8.0 mph SW12.9 kmh SW 11.0 mph17.7 kmh 29.82 in1009.8 mb 0.01 in0.3 mm 0.00 in0.0 mm 0.02 in0.5 mm
12:45 PM 36.7°F2.6°C 33.4°F0.8°C 88% 5.0 mph WSW8.0 kmh WSW 13.0 mph20.9 kmh 29.81 in1009.5 mb 0.01 in0.3 mm 0.00 in0.0 mm 0.02 in0.5 mm
12:50 PM 37.1°F2.8°C 33.5°F0.8°C 87% 10.0 mph SW16.1 kmh SW 14.0 mph22.5 kmh 29.81 in1009.5 mb 0.01 in0.3 mm 0.00 in0.0 mm 0.02 in0.5 mm
12:55 PM 37.3°F2.9°C 33.2°F0.7°C 85% 11.0 mph SW17.7 kmh SW 15.0 mph24.1 kmh 29.81 in1009.5 mb 0.01 in0.3 mm 0.00 in0.0 mm 0.02 in0.5 mm
01:00 PM 37.3°F2.9°C 33.2°F0.7°C 85% 6.0 mph SW9.7 kmh SW 14.0 mph22.5 kmh 29.80 in1009.1 mb 0.01 in0.3 mm 0.00 in0.0 mm 0.02 in0.5 mm
01:05 PM 37.3°F2.9°C 33.2°F0.7°C 85% 5.0 mph SW8.0 kmh SW 13.0 mph20.9 kmh 29.80 in1009.1 mb 0.01 in0.3 mm 0.00 in0.0 mm 0.02 in0.5 mm
01:10 PM 37.4°F3.0°C 33.0°F0.6°C 84% 5.0 mph SW8.0 kmh SW 13.0 mph20.9 kmh 29.79 in1008.8 mb 0.00 in0.0 mm 0.00 in0.0 mm 0.02 in0.5 mm
01:15 PM 37.7°F3.2°C 33.0°F0.6°C 83% 9.0 mph SW14.5 kmh SW 14.0 mph22.5 kmh 29.79 in1008.8 mb 0.00 in0.0 mm 0.00 in0.0 mm 0.02 in0.5 mm
01:20 PM 37.9°F3.3°C 33.2°F0.7°C 83% 3.0 mph SW4.8 kmh SW 16.0 mph25.7 kmh 29.78 in1008.5 mb 0.00 in0.0 mm 0.00 in0.0 mm 0.02 in0.5 mm
01:25 PM 38.2°F3.4°C 32.8°F0.4°C 81% 6.0 mph WSW9.7 kmh WSW 16.0 mph25.7 kmh 29.78 in1008.5 mb 0.00 in0.0 mm 0.00 in0.0 mm 0.02 in0.5 mm
01:30 PM 38.3°F3.5°C 33.2°F0.7°C 82% 11.0 mph SW17.7 kmh SW 13.0 mph20.9 kmh 29.78 in1008.5 mb 0.00 in0.0 mm 0.00 in0.0 mm 0.02 in0.5 mm
01:35 PM 38.4°F3.6°C 32.7°F0.4°C 80% 6.0 mph S9.7 kmh S 15.0 mph24.1 kmh 29.78 in1008.5 mb 0.00 in0.0 mm 0.00 in0.0 mm 0.02 in0.5 mm
01:40 PM 38.4°F3.6°C 32.4°F0.2°C 79% 7.0 mph SW11.3 kmh SW 15.0 mph24.1 kmh 29.77 in1008.1 mb 0.00 in0.0 mm 0.00 in0.0 mm 0.02 in0.5 mm
01:45 PM 38.5°F3.6°C 32.5°F0.3°C 79% 5.0 mph WSW8.0 kmh WSW 15.0 mph24.1 kmh 29.76 in1007.8 mb 0.00 in0.0 mm 0.00 in0.0 mm 0.02 in0.5 mm
01:50 PM 38.5°F3.6°C 32.5°F0.3°C 79% 12.0 mph SW19.3 kmh SW 14.0 mph22.5 kmh 29.76 in1007.8 mb 0.00 in0.0 mm 0.00 in0.0 mm 0.02 in0.5 mm
01:55 PM 38.6°F3.7°C 32.9°F0.5°C 80% 5.0 mph S8.0 kmh S 10.0 mph16.1 kmh 29.76 in1007.8 mb 0.00 in0.0 mm 0.00 in0.0 mm 0.02 in0.5 mm
02:00 PM 38.7°F3.7°C 32.7°F0.4°C 79% 5.0 mph SW8.0 kmh SW 13.0 mph20.9 kmh 29.75 in1007.5 mb 0.00 in0.0 mm 0.00 in0.0 mm 0.02 in0.5 mm
02:05 PM 38.9°F3.8°C 32.9°F0.5°C 79% 4.0 mph SW6.4 kmh SW 12.0 mph19.3 kmh 29.75 in1007.5 mb 0.00 in0.0 mm 0.00 in0.0 mm 0.02 in0.5 mm
02:10 PM 39.0°F3.9°C 32.7°F0.4°C 78% 4.0 mph SW6.4 kmh SW 11.0 mph17.7 kmh 29.75 in1007.5 mb 0.00 in0.0 mm 0.00 in0.0 mm 0.02 in0.5 mm
02:15 PM 39.1°F3.9°C 33.1°F0.6°C 79% 8.0 mph SW12.9 kmh SW 9.0 mph14.5 kmh 29.74 in1007.1 mb 0.00 in0.0 mm 0.00 in0.0 mm 0.02 in0.5 mm
02:20 PM 39.2°F4.0°C 32.2°F0.1°C 76% 10.0 mph SSW16.1 kmh SSW 14.0 mph22.5 kmh 29.74 in1007.1 mb 0.00 in0.0 mm 0.00 in0.0 mm 0.02 in0.5 mm
02:25 PM 39.1°F3.9°C 32.1°F0.1°C 76% 7.0 mph S11.3 kmh S 13.0 mph20.9 kmh 29.74 in1007.1 mb 0.00 in0.0 mm 0.00 in0.0 mm 0.02 in0.5 mm
02:30 PM 39.2°F4.0°C 32.2°F0.1°C 76% 8.0 mph SW12.9 kmh SW 12.0 mph19.3 kmh 29.73 in1006.8 mb 0.00 in0.0 mm 0.00 in0.0 mm 0.02 in0.5 mm
02:35 PM 39.3°F4.1°C 32.3°F0.2°C 76% 11.0 mph SSW17.7 kmh SSW 14.0 mph22.5 kmh 29.73 in1006.8 mb 0.00 in0.0 mm 0.00 in0.0 mm 0.02 in0.5 mm
02:40 PM 39.2°F4.0°C 31.6°F-0.2°C 74% 9.0 mph SSW14.5 kmh SSW 16.0 mph25.7 kmh 29.73 in1006.8 mb 0.00 in0.0 mm 0.00 in0.0 mm 0.02 in0.5 mm
02:45 PM 39.3°F4.1°C 31.7°F-0.2°C 74% 8.0 mph SW12.9 kmh SW 13.0 mph20.9 kmh 29.73 in1006.8 mb 0.00 in0.0 mm 0.00 in0.0 mm 0.02 in0.5 mm
02:50 PM 39.3°F4.1°C 31.7°F-0.2°C 74% 4.0 mph S6.4 kmh S 14.0 mph22.5 kmh 29.72 in1006.4 mb 0.00 in0.0 mm 0.00 in0.0 mm 0.02 in0.5 mm
02:55 PM 39.3°F4.1°C 31.7°F-0.2°C 74% 5.0 mph SW8.0 kmh SW 10.0 mph16.1 kmh 29.72 in1006.4 mb 0.00 in0.0 mm 0.00 in0.0 mm 0.02 in0.5 mm
03:00 PM 39.4°F4.1°C 31.8°F-0.1°C 74% 4.0 mph SSW6.4 kmh SSW 10.0 mph16.1 kmh 29.71 in1006.1 mb 0.00 in0.0 mm 0.00 in0.0 mm 0.02 in0.5 mm
03:05 PM 39.4°F4.1°C 32.1°F0.1°C 75% 3.0 mph S4.8 kmh S 11.0 mph17.7 kmh 29.71 in1006.1 mb 0.00 in0.0 mm 0.00 in0.0 mm 0.02 in0.5 mm
03:10 PM 39.5°F4.2°C 32.2°F0.1°C 75% 1.0 mph S1.6 kmh S 10.0 mph16.1 kmh 29.70 in1005.8 mb 0.00 in0.0 mm 0.00 in0.0 mm 0.02 in0.5 mm
03:15 PM 39.5°F4.2°C 31.9°F-0.1°C 74% 4.0 mph SSE6.4 kmh SSE 7.0 mph11.3 kmh 29.69 in1005.4 mb 0.00 in0.0 mm 0.00 in0.0 mm 0.02 in0.5 mm
03:20 PM 39.5°F4.2°C 32.2°F0.1°C 75% 2.0 mph E3.2 kmh E 6.0 mph9.7 kmh 29.69 in1005.4 mb 0.00 in0.0 mm 0.00 in0.0 mm 0.02 in0.5 mm
03:25 PM 39.4°F4.1°C 32.1°F0.1°C 75% 5.0 mph SE8.0 kmh SE 8.0 mph12.9 kmh 29.69 in1005.4 mb 0.00 in0.0 mm 0.00 in0.0 mm 0.02 in0.5 mm
03:30 PM 39.3°F4.1°C 32.0°F0.0°C 75% 2.0 mph SE3.2 kmh SE 7.0 mph11.3 kmh 29.68 in1005.1 mb 0.00 in0.0 mm 0.00 in0.0 mm 0.02 in0.5 mm
03:35 PM 39.2°F4.0°C 31.6°F-0.2°C 74% 3.0 mph S4.8 kmh S 6.0 mph9.7 kmh 29.68 in1005.1 mb 0.00 in0.0 mm 0.00 in0.0 mm 0.02 in0.5 mm
03:40 PM 39.3°F4.1°C 32.0°F0.0°C 75% 4.0 mph SE6.4 kmh SE 5.0 mph8.0 kmh 29.68 in1005.1 mb 0.00 in0.0 mm 0.00 in0.0 mm 0.02 in0.5 mm
03:45 PM 39.2°F4.0°C 31.9°F-0.1°C 75% 3.0 mph SSE4.8 kmh SSE 7.0 mph11.3 kmh 29.67 in1004.7 mb 0.00 in0.0 mm 0.00 in0.0 mm 0.02 in0.5 mm
03:50 PM 39.2°F4.0°C 32.2°F0.1°C 76% 2.0 mph E3.2 kmh E 6.0 mph9.7 kmh 29.67 in1004.7 mb 0.00 in0.0 mm 0.00 in0.0 mm 0.02 in0.5 mm
03:55 PM 39.1°F3.9°C 32.5°F0.3°C 77% 4.0 mph ESE6.4 kmh ESE 5.0 mph8.0 kmh 29.66 in1004.4 mb 0.00 in0.0 mm 0.00 in0.0 mm 0.02 in0.5 mm
04:00 PM 39.0°F3.9°C 32.4°F0.2°C 77% 2.0 mph ESE3.2 kmh ESE 5.0 mph8.0 kmh 29.66 in1004.4 mb 0.00 in0.0 mm 0.00 in0.0 mm 0.02 in0.5 mm
04:05 PM 38.8°F3.8°C 32.2°F0.1°C 77% 3.0 mph E4.8 kmh E 5.0 mph8.0 kmh 29.66 in1004.4 mb 0.00 in0.0 mm 0.00 in0.0 mm 0.02 in0.5 mm
04:10 PM 38.6°F3.7°C 32.3°F0.2°C 78% 3.0 mph SE4.8 kmh SE 6.0 mph9.7 kmh 29.66 in1004.4 mb 0.00 in0.0 mm 0.00 in0.0 mm 0.02 in0.5 mm
04:15 PM 38.4°F3.6°C 32.1°F0.1°C 78% 3.0 mph E4.8 kmh E 5.0 mph8.0 kmh 29.65 in1004.1 mb 0.00 in0.0 mm 0.00 in0.0 mm 0.02 in0.5 mm
04:20 PM 38.4°F3.6°C 32.4°F0.2°C 79% 2.0 mph E3.2 kmh E 4.0 mph6.4 kmh 29.65 in1004.1 mb 0.00 in0.0 mm 0.00 in0.0 mm 0.02 in0.5 mm
04:25 PM 38.2°F3.4°C 32.2°F0.1°C 79% 4.0 mph E6.4 kmh E 7.0 mph11.3 kmh 29.64 in1003.7 mb 0.00 in0.0 mm 0.00 in0.0 mm 0.02 in0.5 mm
04:30 PM 38.1°F3.4°C 32.4°F0.2°C 80% 3.0 mph ESE4.8 kmh ESE 6.0 mph9.7 kmh 29.64 in1003.7 mb 0.00 in0.0 mm 0.00 in0.0 mm 0.02 in0.5 mm
04:35 PM 37.9°F3.3°C 32.2°F0.1°C 80% 5.0 mph E8.0 kmh E 6.0 mph9.7 kmh 29.64 in1003.7 mb 0.00 in0.0 mm 0.00 in0.0 mm 0.02 in0.5 mm
04:40 PM 37.8°F3.2°C 32.1°F0.1°C 80% 1.0 mph ESE1.6 kmh ESE 6.0 mph9.7 kmh 29.64 in1003.7 mb 0.00 in0.0 mm 0.00 in0.0 mm 0.02 in0.5 mm
04:45 PM 37.6°F3.1°C 32.3°F0.2°C 81% 1.0 mph SE1.6 kmh SE 6.0 mph9.7 kmh 29.63 in1003.4 mb 0.00 in0.0 mm 0.00 in0.0 mm 0.02 in0.5 mm
04:50 PM 37.6°F3.1°C 32.3°F0.2°C 81% 4.0 mph E6.4 kmh E 5.0 mph8.0 kmh 29.63 in1003.4 mb 0.00 in0.0 mm 0.00 in0.0 mm 0.02 in0.5 mm
04:55 PM 37.5°F3.1°C 32.2°F0.1°C 81% 3.0 mph ESE4.8 kmh ESE 6.0 mph9.7 kmh 29.63 in1003.4 mb 0.00 in0.0 mm 0.00 in0.0 mm 0.02 in0.5 mm
05:00 PM 37.5°F3.1°C 32.2°F0.1°C 81% 2.0 mph ESE3.2 kmh ESE 4.0 mph6.4 kmh 29.62 in1003.0 mb 0.00 in0.0 mm 0.00 in0.0 mm 0.02 in0.5 mm
05:05 PM 37.3°F2.9°C 32.0°F0.0°C 81% 4.0 mph SE6.4 kmh SE 5.0 mph8.0 kmh 29.62 in1003.0 mb 0.00 in0.0 mm 0.00 in0.0 mm 0.02 in0.5 mm
05:10 PM 37.2°F2.9°C 32.2°F0.1°C 82% 3.0 mph SE4.8 kmh SE 7.0 mph11.3 kmh 29.62 in1003.0 mb 0.00 in0.0 mm 0.00 in0.0 mm 0.02 in0.5 mm
05:15 PM 37.2°F2.9°C 32.2°F0.1°C 82% 3.0 mph E4.8 kmh E 6.0 mph9.7 kmh 29.62 in1003.0 mb 0.00 in0.0 mm 0.00 in0.0 mm 0.02 in0.5 mm
05:20 PM 37.0°F2.8°C 32.3°F0.2°C 83% 4.0 mph SE6.4 kmh SE 10.0 mph16.1 kmh 29.61 in1002.7 mb 0.00 in0.0 mm 0.00 in0.0 mm 0.02 in0.5 mm
05:25 PM 37.0°F2.8°C 32.3°F0.2°C 83% 5.0 mph SE8.0 kmh SE 5.0 mph8.0 kmh 29.61 in1002.7 mb 0.00 in0.0 mm 0.00 in0.0 mm 0.02 in0.5 mm
05:30 PM 36.9°F2.7°C 32.2°F0.1°C 83% 1.0 mph SSE1.6 kmh SSE 8.0 mph12.9 kmh 29.61 in1002.7 mb 0.00 in0.0 mm 0.00 in0.0 mm 0.02 in0.5 mm
05:35 PM 36.9°F2.7°C 32.2°F0.1°C 83% 2.0 mph SE3.2 kmh SE 4.0 mph6.4 kmh 29.61 in1002.7 mb 0.00 in0.0 mm 0.00 in0.0 mm 0.02 in0.5 mm
05:40 PM 36.9°F2.7°C 31.9°F-0.1°C 82% 2.0 mph SSE3.2 kmh SSE 5.0 mph8.0 kmh 29.61 in1002.7 mb 0.00 in0.0 mm 0.00 in0.0 mm 0.02 in0.5 mm
05:45 PM 37.0°F2.8°C 32.0°F0.0°C 82% 4.0 mph SE6.4 kmh SE 6.0 mph9.7 kmh 29.60 in1002.4 mb 0.00 in0.0 mm 0.00 in0.0 mm 0.02 in0.5 mm
05:50 PM 37.0°F2.8°C 32.0°F0.0°C 82% 2.0 mph SE3.2 kmh SE 6.0 mph9.7 kmh 29.61 in1002.7 mb 0.00 in0.0 mm 0.00 in0.0 mm 0.02 in0.5 mm
05:55 PM 37.1°F2.8°C 31.8°F-0.1°C 81% 5.0 mph SSE8.0 kmh SSE 6.0 mph9.7 kmh 29.60 in1002.4 mb 0.00 in0.0 mm 0.00 in0.0 mm 0.02 in0.5 mm
06:00 PM 37.0°F2.8°C 31.7°F-0.2°C 81% 6.0 mph SSE9.7 kmh SSE 6.0 mph9.7 kmh 29.60 in1002.4 mb 0.00 in0.0 mm 0.00 in0.0 mm 0.02 in0.5 mm
06:05 PM 37.0°F2.8°C 31.4°F-0.3°C 80% 5.0 mph SE8.0 kmh SE 6.0 mph9.7 kmh 29.59 in1002.0 mb 0.00 in0.0 mm 0.00 in0.0 mm 0.02 in0.5 mm
06:10 PM 36.9°F2.7°C 31.3°F-0.4°C 80% 4.0 mph SE6.4 kmh SE 6.0 mph9.7 kmh 29.59 in1002.0 mb 0.00 in0.0 mm 0.00 in0.0 mm 0.02 in0.5 mm
06:15 PM 36.8°F2.7°C 31.5°F-0.3°C 81% 5.0 mph SSE8.0 kmh SSE 8.0 mph12.9 kmh 29.58 in1001.7 mb 0.00 in0.0 mm 0.00 in0.0 mm 0.02 in0.5 mm
06:20 PM 36.6°F2.6°C 31.6°F-0.2°C 82% 3.0 mph SE4.8 kmh SE 9.0 mph14.5 kmh 29.57 in1001.4 mb 0.00 in0.0 mm 0.00 in0.0 mm 0.02 in0.5 mm
06:25 PM 36.4°F2.4°C 31.4°F-0.3°C 82% 4.0 mph E6.4 kmh E 10.0 mph16.1 kmh 29.57 in1001.4 mb 0.00 in0.0 mm 0.00 in0.0 mm 0.02 in0.5 mm
06:30 PM 36.3°F2.4°C 31.6°F-0.2°C 83% 7.0 mph SE11.3 kmh SE 10.0 mph16.1 kmh 29.57 in1001.4 mb 0.00 in0.0 mm 0.00 in0.0 mm 0.02 in0.5 mm
06:35 PM 36.2°F2.3°C 31.5°F-0.3°C 83% 3.0 mph ESE4.8 kmh ESE 11.0 mph17.7 kmh 29.56 in1001.0 mb 0.00 in0.0 mm 0.00 in0.0 mm 0.02 in0.5 mm
06:40 PM 36.0°F2.2°C 31.6°F-0.2°C 84% 4.0 mph E6.4 kmh E 12.0 mph19.3 kmh 29.56 in1001.0 mb 0.00 in0.0 mm 0.00 in0.0 mm 0.02 in0.5 mm
06:45 PM 35.8°F2.1°C 31.7°F-0.2°C 85% 3.0 mph ESE4.8 kmh ESE 11.0 mph17.7 kmh 29.56 in1001.0 mb 0.00 in0.0 mm 0.00 in0.0 mm 0.02 in0.5 mm
06:50 PM 35.5°F1.9°C 32.0°F0.0°C 87% 5.0 mph E8.0 kmh E 7.0 mph11.3 kmh 29.55 in1000.7 mb 0.00 in0.0 mm 0.00 in0.0 mm 0.02 in0.5 mm
06:55 PM 35.2°F1.8°C 32.0°F0.0°C 88% 3.0 mph SSE4.8 kmh SSE 10.0 mph16.1 kmh 29.55 in1000.7 mb 0.00 in0.0 mm 0.00 in0.0 mm 0.02 in0.5 mm
07:00 PM 34.9°F1.6°C 31.7°F-0.2°C 88% 7.0 mph SE11.3 kmh SE 8.0 mph12.9 kmh 29.55 in1000.7 mb 0.00 in0.0 mm 0.00 in0.0 mm 0.02 in0.5 mm
07:05 PM 34.7°F1.5°C 31.7°F-0.2°C 89% 2.0 mph SE3.2 kmh SE 9.0 mph14.5 kmh 29.55 in1000.7 mb 0.01 in0.3 mm 0.12 in3.0 mm 0.02 in0.5 mm
07:10 PM 34.4°F1.3°C 32.0°F0.0°C 91% 2.0 mph ESE3.2 kmh ESE 7.0 mph11.3 kmh 29.55 in1000.7 mb 0.01 in0.3 mm 0.00 in0.0 mm 0.02 in0.5 mm
07:15 PM 34.2°F1.2°C 31.8°F-0.1°C 91% 2.0 mph E3.2 kmh E 5.0 mph8.0 kmh 29.55 in1000.7 mb 0.02 in0.5 mm 0.12 in3.0 mm 0.03 in0.8 mm
07:20 PM 34.1°F1.2°C 32.0°F0.0°C 92% 2.0 mph SE3.2 kmh SE 6.0 mph9.7 kmh 29.54 in1000.3 mb 0.02 in0.5 mm 0.00 in0.0 mm 0.04 in1.0 mm
07:25 PM 34.0°F1.1°C 31.9°F-0.1°C 92% 5.0 mph SE8.0 kmh SE 5.0 mph8.0 kmh 29.54 in1000.3 mb 0.02 in0.5 mm 0.00 in0.0 mm 0.04 in1.0 mm
07:30 PM 33.8°F1.0°C 31.7°F-0.2°C 92% 2.0 mph E3.2 kmh E 6.0 mph9.7 kmh 29.53 in1000.0 mb 0.02 in0.5 mm 0.00 in0.0 mm 0.04 in1.0 mm
07:35 PM 33.8°F1.0°C 31.9°F-0.1°C 93% 5.0 mph E8.0 kmh E 7.0 mph11.3 kmh 29.53 in1000.0 mb 0.03 in0.8 mm 0.12 in3.0 mm 0.05 in1.3 mm
07:40 PM 33.7°F0.9°C 31.8°F-0.1°C 93% 1.0 mph SE1.6 kmh SE 6.0 mph9.7 kmh 29.52 in999.7 mb 0.03 in0.8 mm 0.00 in0.0 mm 0.05 in1.3 mm
07:45 PM 33.7°F0.9°C 31.8°F-0.1°C 93% 5.0 mph ESE8.0 kmh ESE 6.0 mph9.7 kmh 29.52 in999.7 mb 0.04 in1.0 mm 0.12 in3.0 mm 0.06 in1.5 mm
07:50 PM 33.5°F0.8°C 31.6°F-0.2°C 93% 4.0 mph SE6.4 kmh SE 6.0 mph9.7 kmh 29.52 in999.7 mb 0.04 in1.0 mm 0.00 in0.0 mm 0.06 in1.5 mm
07:55 PM 33.5°F0.8°C 31.6°F-0.2°C 93% 2.0 mph ESE3.2 kmh ESE 6.0 mph9.7 kmh 29.52 in999.7 mb 0.05 in1.3 mm 0.12 in3.0 mm 0.06 in1.5 mm
08:00 PM 33.4°F0.8°C 31.8°F-0.1°C 94% 2.0 mph E3.2 kmh E 7.0 mph11.3 kmh 29.51 in999.3 mb 0.06 in1.5 mm 0.01 in0.3 mm 0.07 in1.8 mm
08:05 PM 33.4°F0.8°C 31.8°F-0.1°C 94% 4.0 mph SE6.4 kmh SE 7.0 mph11.3 kmh 29.51 in999.3 mb 0.06 in1.5 mm 0.00 in0.0 mm 0.08 in2.0 mm
08:10 PM 33.4°F0.8°C 31.8°F-0.1°C 94% 2.0 mph E3.2 kmh E 9.0 mph14.5 kmh 29.51 in999.3 mb 0.06 in1.5 mm 0.00 in0.0 mm 0.09 in2.3 mm
08:15 PM 33.4°F0.8°C 31.8°F-0.1°C 94% 3.0 mph SE4.8 kmh SE 7.0 mph11.3 kmh 29.51 in999.3 mb 0.06 in1.5 mm 0.00 in0.0 mm 0.09 in2.3 mm
08:20 PM 33.5°F0.8°C 31.9°F-0.1°C 94% 1.0 mph SE1.6 kmh SE 7.0 mph11.3 kmh 29.51 in999.3 mb 0.06 in1.5 mm 0.00 in0.0 mm 0.09 in2.3 mm
08:25 PM 33.5°F0.8°C 31.9°F-0.1°C 94% 6.0 mph E9.7 kmh E 9.0 mph14.5 kmh 29.51 in999.3 mb 0.06 in1.5 mm 0.00 in0.0 mm 0.10 in2.5 mm
08:30 PM 33.5°F0.8°C 31.9°F-0.1°C 94% 4.0 mph E6.4 kmh E 9.0 mph14.5 kmh 29.51 in999.3 mb 0.06 in1.5 mm 0.00 in0.0 mm 0.10 in2.5 mm
08:35 PM 33.5°F0.8°C 31.9°F-0.1°C 94% 2.0 mph SE3.2 kmh SE 6.0 mph9.7 kmh 29.51 in999.3 mb 0.06 in1.5 mm 0.00 in0.0 mm 0.11 in2.8 mm
08:40 PM 33.5°F0.8°C 31.9°F-0.1°C 94% 3.0 mph ESE4.8 kmh ESE 6.0 mph9.7 kmh 29.51 in999.3 mb 0.06 in1.5 mm 0.00 in0.0 mm 0.11 in2.8 mm
08:45 PM 33.5°F0.8°C 31.9°F-0.1°C 94% 1.0 mph SSE1.6 kmh SSE 6.0 mph9.7 kmh 29.50 in999.0 mb 0.06 in1.5 mm 0.00 in0.0 mm 0.12 in3.0 mm
08:50 PM 33.5°F0.8°C 31.9°F-0.1°C 94% 3.0 mph SSE4.8 kmh SSE 6.0 mph9.7 kmh 29.51 in999.3 mb 0.07 in1.8 mm 0.12 in3.0 mm 0.13 in3.3 mm
08:55 PM 33.5°F0.8°C 31.9°F-0.1°C 94% 6.0 mph SE9.7 kmh SE 6.0 mph9.7 kmh 29.50 in999.0 mb 0.07 in1.8 mm 0.00 in0.0 mm 0.13 in3.3 mm
09:00 PM 33.5°F0.8°C 31.9°F-0.1°C 94% 5.0 mph SE8.0 kmh SE 7.0 mph11.3 kmh 29.50 in999.0 mb 0.07 in1.8 mm 0.00 in0.0 mm 0.14 in3.6 mm
09:05 PM 33.5°F0.8°C 32.2°F0.1°C 95% 3.0 mph SE4.8 kmh SE 6.0 mph9.7 kmh 29.49 in998.6 mb 0.07 in1.8 mm 0.00 in0.0 mm 0.15 in3.8 mm
09:10 PM 33.5°F0.8°C 31.9°F-0.1°C 94% 3.0 mph SE4.8 kmh SE 6.0 mph9.7 kmh 29.49 in998.6 mb 0.06 in1.5 mm 0.00 in0.0 mm 0.15 in3.8 mm
09:15 PM 33.5°F0.8°C 32.2°F0.1°C 95% 4.0 mph SSE6.4 kmh SSE 7.0 mph11.3 kmh 29.49 in998.6 mb 0.07 in1.8 mm 0.12 in3.0 mm 0.16 in4.1 mm
09:20 PM 33.5°F0.8°C 32.2°F0.1°C 95% 1.0 mph SSE1.6 kmh SSE 5.0 mph8.0 kmh 29.49 in998.6 mb 0.07 in1.8 mm 0.00 in0.0 mm 0.17 in4.3 mm
09:25 PM 33.5°F0.8°C 32.2°F0.1°C 95% 2.0 mph ESE3.2 kmh ESE 4.0 mph6.4 kmh 29.49 in998.6 mb 0.07 in1.8 mm 0.00 in0.0 mm 0.17 in4.3 mm
09:30 PM 33.5°F0.8°C 32.2°F0.1°C 95% Calm Calm 5.0 mph8.0 kmh 29.49 in998.6 mb 0.08 in2.0 mm 0.12 in3.0 mm 0.18 in4.6 mm
09:35 PM 33.6°F0.9°C 32.3°F0.2°C 95% 2.0 mph SE3.2 kmh SE 5.0 mph8.0 kmh 29.49 in998.6 mb 0.07 in1.8 mm 0.00 in0.0 mm 0.18 in4.6 mm
09:40 PM 33.6°F0.9°C 32.3°F0.2°C 95% 2.0 mph SE3.2 kmh SE 6.0 mph9.7 kmh 29.48 in998.3 mb 0.08 in2.0 mm 0.12 in3.0 mm 0.19 in4.8 mm
09:45 PM 33.6°F0.9°C 32.3°F0.2°C 95% 5.0 mph SSE8.0 kmh SSE 5.0 mph8.0 kmh 29.48 in998.3 mb 0.07 in1.8 mm 0.00 in0.0 mm 0.19 in4.8 mm
09:50 PM 33.7°F0.9°C 32.4°F0.2°C 95% 2.0 mph SE3.2 kmh SE 5.0 mph8.0 kmh 29.48 in998.3 mb 0.06 in1.5 mm 0.00 in0.0 mm 0.19 in4.8 mm
09:55 PM 33.7°F0.9°C 32.4°F0.2°C 95% 3.0 mph SE4.8 kmh SE 5.0 mph8.0 kmh 29.48 in998.3 mb 0.06 in1.5 mm 0.00 in0.0 mm 0.20 in5.1 mm
10:00 PM 33.7°F0.9°C 32.4°F0.2°C 95% 4.0 mph S6.4 kmh S 5.0 mph8.0 kmh 29.48 in998.3 mb 0.06 in1.5 mm 0.00 in0.0 mm 0.20 in5.1 mm
10:05 PM 33.7°F0.9°C 32.4°F0.2°C 95% 1.0 mph SSE1.6 kmh SSE 4.0 mph6.4 kmh 29.48 in998.3 mb 0.06 in1.5 mm 0.00 in0.0 mm 0.20 in5.1 mm
10:10 PM 33.7°F0.9°C 32.4°F0.2°C 95% 2.0 mph S3.2 kmh S 4.0 mph6.4 kmh 29.48 in998.3 mb 0.06 in1.5 mm 0.00 in0.0 mm 0.20 in5.1 mm
10:15 PM 33.7°F0.9°C 32.4°F0.2°C 95% 3.0 mph SE4.8 kmh SE 4.0 mph6.4 kmh 29.48 in998.3 mb 0.05 in1.3 mm 0.00 in0.0 mm 0.20 in5.1 mm
10:20 PM 33.7°F0.9°C 32.4°F0.2°C 95% 3.0 mph SSE4.8 kmh SSE 5.0 mph8.0 kmh 29.48 in998.3 mb 0.05 in1.3 mm 0.00 in0.0 mm 0.21 in5.3 mm
10:25 PM 33.8°F1.0°C 32.5°F0.3°C 95% 2.0 mph S3.2 kmh S 4.0 mph6.4 kmh 29.48 in998.3 mb 0.04 in1.0 mm 0.00 in0.0 mm 0.21 in5.3 mm
10:30 PM 33.8°F1.0°C 32.5°F0.3°C 95% 1.0 mph S1.6 kmh S 4.0 mph6.4 kmh 29.48 in998.3 mb 0.03 in0.8 mm 0.00 in0.0 mm 0.21 in5.3 mm
10:35 PM 33.8°F1.0°C 32.5°F0.3°C 95% 2.0 mph SW3.2 kmh SW 2.0 mph3.2 kmh 29.47 in998.0 mb 0.03 in0.8 mm 0.00 in0.0 mm 0.21 in5.3 mm
10:40 PM 33.9°F1.1°C 32.6°F0.3°C 95% 1.0 mph S1.6 kmh S 4.0 mph6.4 kmh 29.48 in998.3 mb 0.02 in0.5 mm 0.00 in0.0 mm 0.21 in5.3 mm
10:45 PM 33.9°F1.1°C 32.6°F0.3°C 95% 2.0 mph SSW3.2 kmh SSW 4.0 mph6.4 kmh 29.47 in998.0 mb 0.02 in0.5 mm 0.00 in0.0 mm 0.21 in5.3 mm
10:50 PM 34.0°F1.1°C 32.7°F0.4°C 95% 1.0 mph SW1.6 kmh SW 4.0 mph6.4 kmh 29.47 in998.0 mb 0.02 in0.5 mm 0.00 in0.0 mm 0.21 in5.3 mm
10:55 PM 34.1°F1.2°C 32.8°F0.4°C 95% 1.0 mph S1.6 kmh S 4.0 mph6.4 kmh 29.47 in998.0 mb 0.02 in0.5 mm 0.00 in0.0 mm 0.21 in5.3 mm
11:00 PM 34.1°F1.2°C 32.8°F0.4°C 95% 1.0 mph S1.6 kmh S 3.0 mph4.8 kmh 29.47 in998.0 mb 0.02 in0.5 mm 0.00 in0.0 mm 0.21 in5.3 mm
11:05 PM 34.1°F1.2°C 32.8°F0.4°C 95% 2.0 mph S3.2 kmh S 3.0 mph4.8 kmh 29.46 in997.6 mb 0.01 in0.3 mm 0.00 in0.0 mm 0.21 in5.3 mm
11:10 PM 34.2°F1.2°C 32.9°F0.5°C 95% 2.0 mph SSW3.2 kmh SSW 3.0 mph4.8 kmh 29.46 in997.6 mb 0.01 in0.3 mm 0.00 in0.0 mm 0.21 in5.3 mm
11:15 PM 34.2°F1.2°C 32.9°F0.5°C 95% 2.0 mph S3.2 kmh S 4.0 mph6.4 kmh 29.46 in997.6 mb 0.01 in0.3 mm 0.00 in0.0 mm 0.21 in5.3 mm
11:20 PM 34.3°F1.3°C 32.7°F0.4°C 94% Calm Calm 3.0 mph4.8 kmh 29.46 in997.6 mb 0.00 in0.0 mm 0.00 in0.0 mm 0.21 in5.3 mm
11:25 PM 34.3°F1.3°C 32.7°F0.4°C 94% 1.0 mph SW1.6 kmh SW 3.0 mph4.8 kmh 29.46 in997.6 mb 0.00 in0.0 mm 0.00 in0.0 mm 0.21 in5.3 mm
11:30 PM 34.3°F1.3°C 32.7°F0.4°C 94% 3.0 mph SSW4.8 kmh SSW 3.0 mph4.8 kmh 29.46 in997.6 mb 0.00 in0.0 mm 0.00 in0.0 mm 0.21 in5.3 mm
11:35 PM 34.4°F1.3°C 32.8°F0.4°C 94% 3.0 mph SW4.8 kmh SW 4.0 mph6.4 kmh 29.45 in997.3 mb 0.00 in0.0 mm 0.00 in0.0 mm 0.21 in5.3 mm
11:40 PM 34.4°F1.3°C 32.8°F0.4°C 94% 1.0 mph SSW1.6 kmh SSW 5.0 mph8.0 kmh 29.46 in997.6 mb 0.00 in0.0 mm 0.00 in0.0 mm 0.21 in5.3 mm
11:45 PM 34.5°F1.4°C 32.9°F0.5°C 94% 2.0 mph WSW3.2 kmh WSW 4.0 mph6.4 kmh 29.46 in997.6 mb 0.00 in0.0 mm 0.00 in0.0 mm 0.21 in5.3 mm
11:50 PM 34.6°F1.4°C 33.0°F0.6°C 94% 2.0 mph SW3.2 kmh SW 5.0 mph8.0 kmh 29.46 in997.6 mb 0.00 in0.0 mm 0.00 in0.0 mm 0.21 in5.3 mm
11:55 PM 34.6°F1.4°C 33.0°F0.6°C 94% 1.0 mph WSW1.6 kmh WSW 3.0 mph4.8 kmh 29.46 in997.6 mb 0.00 in0.0 mm 0.00 in0.0 mm 0.21 in5.3 mm